Big Oak Valley, California
Current Conditions -  °F | °C
As of 9:58 AM on Thursday 29 Jan 2015 (Local Time) from KBAB Reporting Station
Clear Clear  
Wind Chill: 53°   Ceiling: Unl
Heat Index: 53°   Visibility: 10mi
Dew Point: 46°   Wind: 3mph
Humidity: 77%   Direction: 220°SW
Pressure: 30.15"   Gusts: NA
Location:  39.1816°N, 121.266°W
Report Text: KBAB 291758Z AUTO 22003KT 10SM CLR 12/08 A3015 RMK AO2 SLP287 T01190079 10121 20049 50003 $
Loading
Personal Weather Stations






























Interactive Weather Map New forecast layout! Learn more

10-Day Weather Forecast

Advertisements
Track Severe Weather on mobile